Flight Track Log - Related Links

Times and Time Zones

All times are in EDT time to prevent confusion due to time zone crossing. See the GJS3710 flight status page for this flight to view local times or setup timezone preferences in your user account.

Time Position Orientation Groundspeed Altitude Reporting Facility
EDT Latitude Longitude Course Direction KTS MPH feet Rate Location/Type
Sat 05:18:04 PM 39.8992 -104.4733 79° East 243 280 10,200  Level Denver Center
Sat 05:19:00 PM 39.9501 -104.1218 73° East  Level FlightAware Approximate
Sat 05:19:06 PM 39.9103 -104.3758 82° East 270 311 12,400  Level Denver Center
Sat 05:20:00 PM 39.9667 -103.9844 90° East  Level FlightAware Approximate
Sat 05:20:07 PM 39.9267 -104.2614 79° East 299 344 14,600  Level Denver Center
Sat 05:21:00 PM 39.9953 -103.8498 79° East  Level FlightAware Approximate
Sat 05:21:09 PM 39.9411 -104.1461 81° East 321 369 17,000  Level Denver Center
Sat 05:22:00 PM 40.0241 -103.7151 79° East  Level FlightAware Approximate
Sat 05:22:11 PM 39.8961 -104.0561 123° Southeast 296 341 19,300  Level Denver Center
Sat 05:23:00 PM 40.0438 -103.5767 79° East  Level FlightAware Approximate
Sat 05:23:12 PM 39.8267 -103.9736 138° Southeast 314 361 20,900  Level Denver Center
Sat 05:24:14 PM 39.7661 -103.8717 128° Southeast 360 414 21,900 1,065 Climbing Denver Center
Sat 05:25:16 PM 39.6997 -103.7589 127° Southeast 390 449 23,100 1,268 Climbing Denver Center
Sat 05:26:17 PM 39.6378 -103.6397 124° Southeast 404 465 24,500 1,512 Climbing Denver Center
Sat 05:27:19 PM 39.5500 -103.5228 134° Southeast 405 466 26,200 1,500 Climbing Denver Center
Sat 05:28:21 PM 39.4697 -103.4233 136° Southeast 413 475 27,600 1,366 Climbing Denver Center
Sat 05:29:22 PM 39.3775 -103.3083 136° Southeast 413 475 29,000 683 Climbing Denver Center
Sat 05:30:24 PM 39.2981 -103.2097 136° Southeast 413 475 29,000  Level Denver Center
Sat 05:31:26 PM 39.2397 -103.0914 122° Southeast 419 482 29,000  Level Denver Center
Sat 05:32:27 PM 39.1894 -102.9406 113° Southeast 411 473 29,000 537 Level Denver Center
Sat 05:33:29 PM 39.1594 -102.8006 105° East 423 487 30,100 1,258 Climbing Denver Center
Sat 05:34:31 PM 39.1314 -102.6389 103° East 425 489 31,600 1,317 Climbing Denver Center
Sat 05:35:32 PM 39.1286 -102.4892 91° East 434 499 32,800 1,067 Climbing Denver Center
Sat 05:36:46 PM 39.1253 -102.3150 91° East 438 504 34,000 926 Climbing Denver Center
Sat 05:37:48 PM 39.1214 -102.1406 92° East 440 506 34,900 484 Climbing Denver Center
Sat 05:38:50 PM 39.1231 -101.9600 89° East 456 525 35,000 49 Climbing Denver Center
Sat 05:39:51 PM 39.1903 -101.8169 59° Northeast 497 572 35,000  Level Denver Center
Sat 05:40:53 PM 39.3292 -101.7428 22° Northeast 496 571 35,000  Level Denver Center
Sat 05:41:55 PM 39.4631 -101.7100 11° North 484 557 35,000  Level Denver Center
Sat 05:42:56 PM 39.5883 -101.6619 16° North 489 563 35,000  Level Denver Center
Sat 05:43:58 PM 39.7372 -101.6131 14° North 492 566 35,000  Level Denver Center
Sat 05:45:00 PM 39.8642 -101.5653 16° North 494 568 35,000  Level Denver Center
Sat 05:46:01 PM 39.9878 -101.5086 19° North 492 566 35,000  Level Denver Center
Sat 05:47:03 PM 40.1042 -101.3819 40° Northeast 484 557 35,000  Level Denver Center
Sat 05:48:04 PM 40.2089 -101.2794 37° Northeast 491 565 35,000  Level Denver Center
Sat 05:49:06 PM 40.3253 -101.1511 40° Northeast 490 564 35,000  Level Denver Center
Sat 05:50:08 PM 40.4028 -101.0208 52° Northeast 472 543 35,000  Level Denver Center
Sat 05:51:09 PM 40.4472 -100.8408 72° East 466 536 35,000  Level Denver Center
Sat 05:52:11 PM 40.4817 -100.6861 74° East 465 535 35,000  Level Denver Center
Sat 05:54:08 PM 40.5558 -100.3581 73° East 466 536 35,000  Level Minneapolis Center
Sat 05:55:09 PM 40.5919 -100.1936 74° East 467 537 35,000  Level Minneapolis Center
Sat 05:56:10 PM 40.6286 -100.0283 74° East 470 541 35,000  Level Minneapolis Center
Sat 05:57:12 PM 40.6639 -99.8622 74° East 472 543 35,000  Level Minneapolis Center
Sat 05:58:13 PM 40.6997 -99.6967 74° East 471 542 35,000  Level Minneapolis Center
Sat 05:59:14 PM 40.7347 -99.5292 75° East 474 545 35,000  Level Minneapolis Center
Sat 06:00:16 PM 40.7694 -99.3636 74° East 472 543 35,000  Level Minneapolis Center
Sat 06:01:18 PM 40.8042 -99.1972 75° East 472 543 35,000  Level Minneapolis Center
Sat 06:02:19 PM 40.8417 -99.0153 75° East 474 545 35,000 -98 Level Minneapolis Center
Sat 06:03:20 PM 40.8750 -98.8483 75° East 472 543 34,800 -390 Descending Minneapolis Center
Sat 06:04:22 PM 40.9081 -98.6803 75° East 473 544 34,200 -732 Descending Minneapolis Center
Sat 06:05:23 PM 40.9431 -98.5181 74° East 465 535 33,300 -984 Descending Minneapolis Center
Sat 06:06:24 PM 40.9769 -98.3450 75° East 458 527 32,200 -1,024 Descending Minneapolis Center
Sat 06:07:26 PM 41.0172 -98.1878 71° East 455 524 31,200 -1,366 Descending Minneapolis Center
Sat 06:08:27 PM 41.0597 -98.0308 70° East 454 522 29,400 -2,115 Descending Minneapolis Center
Sat 06:09:28 PM 41.1100 -97.8431 70° East 450 518 26,900 -2,195 Descending Minneapolis Center
Sat 06:10:30 PM 41.1494 -97.6967 70° East 431 496 24,900 -1,951 Descending Minneapolis Center
Sat 06:11:31 PM 41.1867 -97.5536 71° East 415 478 22,900 -1,967 Descending Minneapolis Center
Sat 06:12:32 PM 41.2231 -97.4150 71° East 401 461 20,900 -1,902 Descending Minneapolis Center
Sat 06:13:34 PM 41.2564 -97.2853 71° East 394 453 19,000 -2,182 Descending Minneapolis Center
Sat 06:14:11 PM 41.2667 -97.1867 82° East 391 450 17,300 -2,164 Descending Minneapolis Center
Sat 06:14:35 PM 41.2914 -97.1494 49° Northeast 390 449 16,800 -1,279 Descending Minneapolis Center
Sat 06:15:12 PM 41.3033 -97.0556 80° East 369 425 16,000 -1,475 Descending Minneapolis Center
Sat 06:15:36 PM 41.3253 -97.0214 49° Northeast 372 428 15,300 -2,500 Descending Minneapolis Center
Sat 06:16:12 PM 41.3339 -96.9333 83° East 350 403 13,500 -2,262 Descending Minneapolis Center
Sat 06:16:37 PM 41.3553 -96.8994 50° Northeast 352 405 13,000 -1,967 Descending Minneapolis Center
Sat 06:17:13 PM 41.3458 -96.8100 98° East 329 379 11,500 -2,323 Descending Minneapolis Center
Sat 06:17:39 PM 41.3492 -96.7564 85° East 327 376 10,600 -1,745 Descending Minneapolis Center
Sat 06:18:08 PM 41.3292 -96.7064 118° Southeast 317 365 9,900 -1,475 Descending Minneapolis Center
Sat 06:18:40 PM 41.3317 -96.6450 87° East 313 360 9,100 -1,400 Descending Minneapolis Center
Sat 06:19:08 PM 41.3289 -96.5956 94° East 309 356 8,500 -822 Descending Minneapolis Center
Sat 06:19:53 PM 41.3392 -96.5314 78° East 307 353 8,100 -785 Descending Minneapolis Center
Sat 06:20:55 PM 41.3464 -96.4092 85° East 283 326 7,100 -1,073 Descending Minneapolis Center
Sat 06:21:56 PM 41.3517 -96.3153 86° East 269 310 5,900 -1,154 Descending Minneapolis Center
Sat 06:23:05 PM 41.3533 -96.2128 89° East 242 278 4,600 -1,022 Descending Minneapolis Center
Sat 06:24:11 PM 41.3622 -96.1242 82° East 243 280 3,600 -992 Descending Minneapolis Center
Sat 06:25:12 PM 41.3633 -96.0422 89° East 202 232 2,500 -595 Descending Minneapolis Center
Sat 06:26:12 PM 41.3614 -95.9786 92° East 166 191 2,400 -100 Descending Minneapolis Center

Login

Don't have an account? Register now (free) for customized features, flight alerts, and more!